sensor_id;sensor_type;location;lat;lon;timestamp;temperature;humidity
26907;DHT22;14472;56.880;16.658;2023-07-31T00:02:15;20.10;1.00
26907;DHT22;14472;56.880;16.658;2023-07-31T00:04:40;20.10;1.00
26907;DHT22;14472;56.880;16.658;2023-07-31T00:07:06;20.00;1.00
26907;DHT22;14472;56.880;16.658;2023-07-31T00:09:35;20.00;1.00
26907;DHT22;14472;56.880;16.658;2023-07-31T00:12:01;20.00;1.00
26907;DHT22;14472;56.880;16.658;2023-07-31T00:14:26;20.00;1.00
26907;DHT22;14472;56.880;16.658;2023-07-31T00:16:53;19.90;1.00
26907;DHT22;14472;56.880;16.658;2023-07-31T00:19:18;19.80;1.00
26907;DHT22;14472;56.880;16.658;2023-07-31T00:21:44;19.80;1.00
26907;DHT22;14472;56.880;16.658;2023-07-31T00:24:10;19.80;1.00
26907;DHT22;14472;56.880;16.658;2023-07-31T00:26:36;19.70;1.00
26907;DHT22;14472;56.880;16.658;2023-07-31T00:29:02;19.70;1.00
26907;DHT22;14472;56.880;16.658;2023-07-31T00:31:27;19.70;1.00
26907;DHT22;14472;56.880;16.658;2023-07-31T00:33:56;19.70;1.00
26907;DHT22;14472;56.880;16.658;2023-07-31T00:36:22;19.60;1.00
26907;DHT22;14472;56.880;16.658;2023-07-31T00:38:48;19.60;1.00
26907;DHT22;14472;56.880;16.658;2023-07-31T00:41:14;19.60;1.00
26907;DHT22;14472;56.880;16.658;2023-07-31T00:43:40;19.60;1.00
26907;DHT22;14472;56.880;16.658;2023-07-31T00:46:06;19.50;1.00
26907;DHT22;14472;56.880;16.658;2023-07-31T00:48:33;19.50;1.00
26907;DHT22;14472;56.880;16.658;2023-07-31T00:50:59;19.50;1.00
26907;DHT22;14472;56.880;16.658;2023-07-31T00:53:27;19.40;1.00
26907;DHT22;14472;56.880;16.658;2023-07-31T00:55:53;19.40;1.00
26907;DHT22;14472;56.880;16.658;2023-07-31T00:58:19;19.40;1.00
26907;DHT22;14472;56.880;16.658;2023-07-31T01:00:45;19.40;1.00
26907;DHT22;14472;56.880;16.658;2023-07-31T01:03:11;19.40;1.00
26907;DHT22;14472;56.880;16.658;2023-07-31T01:05:54;19.40;1.00
26907;DHT22;14472;56.880;16.658;2023-07-31T01:11:00;19.40;1.00
26907;DHT22;14472;56.880;16.658;2023-07-31T01:13:29;19.30;1.00
26907;DHT22;14472;56.880;16.658;2023-07-31T01:15:55;19.30;1.00
26907;DHT22;14472;56.880;16.658;2023-07-31T01:18:20;19.20;1.00
26907;DHT22;14472;56.880;16.658;2023-07-31T01:20:57;19.20;1.00
26907;DHT22;14472;56.880;16.658;2023-07-31T01:26:12;19.10;1.00
26907;DHT22;14472;56.880;16.658;2023-07-31T01:31:20;19.00;1.00
26907;DHT22;14472;56.880;16.658;2023-07-31T01:33:47;19.00;1.00
26907;DHT22;14472;56.880;16.658;2023-07-31T01:36:14;18.90;1.00
26907;DHT22;14472;56.880;16.658;2023-07-31T01:38:39;18.90;1.00
26907;DHT22;14472;56.880;16.658;2023-07-31T01:41:05;18.90;1.00
26907;DHT22;14472;56.880;16.658;2023-07-31T01:43:31;18.90;1.00
26907;DHT22;14472;56.880;16.658;2023-07-31T01:45:56;18.90;1.00
26907;DHT22;14472;56.880;16.658;2023-07-31T01:48:22;18.90;1.00
26907;DHT22;14472;56.880;16.658;2023-07-31T01:50:48;18.90;1.00
26907;DHT22;14472;56.880;16.658;2023-07-31T01:53:14;18.90;1.00
26907;DHT22;14472;56.880;16.658;2023-07-31T01:55:40;18.80;1.00
26907;DHT22;14472;56.880;16.658;2023-07-31T01:58:05;18.80;1.00
26907;DHT22;14472;56.880;16.658;2023-07-31T02:00:31;18.80;1.00
26907;DHT22;14472;56.880;16.658;2023-07-31T02:02:57;18.80;1.00
26907;DHT22;14472;56.880;16.658;2023-07-31T02:05:22;18.80;1.00
26907;DHT22;14472;56.880;16.658;2023-07-31T02:07:48;18.80;1.00
26907;DHT22;14472;56.880;16.658;2023-07-31T02:10:14;18.70;1.00
26907;DHT22;14472;56.880;16.658;2023-07-31T02:12:40;18.70;1.00
26907;DHT22;14472;56.880;16.658;2023-07-31T02:15:06;18.70;1.00
26907;DHT22;14472;56.880;16.658;2023-07-31T02:17:32;18.70;1.00
26907;DHT22;14472;56.880;16.658;2023-07-31T02:19:57;18.70;1.00
26907;DHT22;14472;56.880;16.658;2023-07-31T02:22:23;18.80;1.00
26907;DHT22;14472;56.880;16.658;2023-07-31T02:24:49;18.70;1.00
26907;DHT22;14472;56.880;16.658;2023-07-31T02:27:14;18.70;1.00
26907;DHT22;14472;56.880;16.658;2023-07-31T02:29:40;18.70;1.00
26907;DHT22;14472;56.880;16.658;2023-07-31T02:32:06;18.70;1.00
26907;DHT22;14472;56.880;16.658;2023-07-31T02:34:32;18.70;1.00
26907;DHT22;14472;56.880;16.658;2023-07-31T02:36:57;18.70;1.00
26907;DHT22;14472;56.880;16.658;2023-07-31T02:39:23;18.70;1.00
26907;DHT22;14472;56.880;16.658;2023-07-31T02:41:49;18.70;1.00
26907;DHT22;14472;56.880;16.658;2023-07-31T02:44:15;18.70;1.00
26907;DHT22;14472;56.880;16.658;2023-07-31T02:46:40;18.60;1.00
26907;DHT22;14472;56.880;16.658;2023-07-31T02:49:06;18.60;1.00
26907;DHT22;14472;56.880;16.658;2023-07-31T02:51:32;18.60;1.00
26907;DHT22;14472;56.880;16.658;2023-07-31T02:53:57;18.60;1.00
26907;DHT22;14472;56.880;16.658;2023-07-31T02:56:23;18.60;1.00
26907;DHT22;14472;56.880;16.658;2023-07-31T02:58:49;18.60;1.00
26907;DHT22;14472;56.880;16.658;2023-07-31T03:01:14;18.60;1.00
26907;DHT22;14472;56.880;16.658;2023-07-31T03:03:41;18.60;1.00
26907;DHT22;14472;56.880;16.658;2023-07-31T03:06:07;18.60;1.00
26907;DHT22;14472;56.880;16.658;2023-07-31T03:08:33;18.60;1.00
26907;DHT22;14472;56.880;16.658;2023-07-31T03:10:59;18.50;1.00
26907;DHT22;14472;56.880;16.658;2023-07-31T03:13:24;18.50;1.00
26907;DHT22;14472;56.880;16.658;2023-07-31T03:15:50;18.50;1.00
26907;DHT22;14472;56.880;16.658;2023-07-31T03:18:16;18.50;1.00
26907;DHT22;14472;56.880;16.658;2023-07-31T03:20:43;18.50;1.00
26907;DHT22;14472;56.880;16.658;2023-07-31T03:23:09;18.50;1.00
26907;DHT22;14472;56.880;16.658;2023-07-31T03:25:35;18.50;1.00
26907;DHT22;14472;56.880;16.658;2023-07-31T03:28:01;18.50;1.00
26907;DHT22;14472;56.880;16.658;2023-07-31T03:30:26;18.50;1.00
26907;DHT22;14472;56.880;16.658;2023-07-31T03:32:52;18.50;1.00
26907;DHT22;14472;56.880;16.658;2023-07-31T03:35:18;18.40;1.00
26907;DHT22;14472;56.880;16.658;2023-07-31T03:37:44;18.30;1.00
26907;DHT22;14472;56.880;16.658;2023-07-31T03:40:10;18.30;1.00
26907;DHT22;14472;56.880;16.658;2023-07-31T03:42:36;18.30;1.00
26907;DHT22;14472;56.880;16.658;2023-07-31T03:45:02;18.30;1.00
26907;DHT22;14472;56.880;16.658;2023-07-31T03:47:27;18.30;1.00
26907;DHT22;14472;56.880;16.658;2023-07-31T03:49:53;18.30;1.00
26907;DHT22;14472;56.880;16.658;2023-07-31T03:52:19;18.30;1.00
26907;DHT22;14472;56.880;16.658;2023-07-31T03:54:44;18.30;1.00
26907;DHT22;14472;56.880;16.658;2023-07-31T03:57:10;18.20;1.00
26907;DHT22;14472;56.880;16.658;2023-07-31T03:59:37;18.20;1.00
26907;DHT22;14472;56.880;16.658;2023-07-31T04:02:04;18.20;1.00
26907;DHT22;14472;56.880;16.658;2023-07-31T04:04:30;18.20;1.00
26907;DHT22;14472;56.880;16.658;2023-07-31T04:06:56;18.20;1.00
26907;DHT22;14472;56.880;16.658;2023-07-31T04:09:22;18.20;1.00
26907;DHT22;14472;56.880;16.658;2023-07-31T04:11:48;18.20;1.00
26907;DHT22;14472;56.880;16.658;2023-07-31T04:14:13;18.20;1.00
26907;DHT22;14472;56.880;16.658;2023-07-31T04:16:39;18.10;1.00
26907;DHT22;14472;56.880;16.658;2023-07-31T04:19:05;18.10;1.00
26907;DHT22;14472;56.880;16.658;2023-07-31T04:21:30;18.10;1.00
26907;DHT22;14472;56.880;16.658;2023-07-31T04:23:56;18.10;1.00
26907;DHT22;14472;56.880;16.658;2023-07-31T04:26:23;18.10;1.00
26907;DHT22;14472;56.880;16.658;2023-07-31T04:28:49;18.10;1.00
26907;DHT22;14472;56.880;16.658;2023-07-31T04:31:15;18.00;1.00
26907;DHT22;14472;56.880;16.658;2023-07-31T04:33:40;18.10;1.00
26907;DHT22;14472;56.880;16.658;2023-07-31T04:36:06;18.00;1.00
26907;DHT22;14472;56.880;16.658;2023-07-31T04:38:32;18.10;1.00
26907;DHT22;14472;56.880;16.658;2023-07-31T04:40:57;18.10;1.00
26907;DHT22;14472;56.880;16.658;2023-07-31T04:43:23;18.10;1.00
26907;DHT22;14472;56.880;16.658;2023-07-31T04:45:49;18.10;1.00
26907;DHT22;14472;56.880;16.658;2023-07-31T04:48:15;18.10;1.00
26907;DHT22;14472;56.880;16.658;2023-07-31T04:50:41;18.10;1.00
26907;DHT22;14472;56.880;16.658;2023-07-31T04:53:07;18.10;1.00
26907;DHT22;14472;56.880;16.658;2023-07-31T04:55:33;18.10;1.00
26907;DHT22;14472;56.880;16.658;2023-07-31T04:57:59;18.10;1.00
26907;DHT22;14472;56.880;16.658;2023-07-31T05:00:25;18.10;1.00
26907;DHT22;14472;56.880;16.658;2023-07-31T05:02:50;18.20;1.00
26907;DHT22;14472;56.880;16.658;2023-07-31T05:05:16;18.20;1.00
26907;DHT22;14472;56.880;16.658;2023-07-31T05:07:42;18.10;1.00
26907;DHT22;14472;56.880;16.658;2023-07-31T05:10:08;18.10;1.00
26907;DHT22;14472;56.880;16.658;2023-07-31T05:12:34;18.10;1.00
26907;DHT22;14472;56.880;16.658;2023-07-31T05:15:00;18.10;1.00
26907;DHT22;14472;56.880;16.658;2023-07-31T05:17:25;18.10;1.00
26907;DHT22;14472;56.880;16.658;2023-07-31T05:19:51;18.10;1.00
26907;DHT22;14472;56.880;16.658;2023-07-31T05:22:17;18.10;1.00
26907;DHT22;14472;56.880;16.658;2023-07-31T05:24:42;18.10;1.00
26907;DHT22;14472;56.880;16.658;2023-07-31T05:27:08;18.20;1.00
26907;DHT22;14472;56.880;16.658;2023-07-31T05:29:35;18.20;1.00
26907;DHT22;14472;56.880;16.658;2023-07-31T05:32:01;18.20;1.00
26907;DHT22;14472;56.880;16.658;2023-07-31T05:34:26;18.10;1.00
26907;DHT22;14472;56.880;16.658;2023-07-31T05:36:52;18.20;1.00
26907;DHT22;14472;56.880;16.658;2023-07-31T05:39:18;18.10;1.00
26907;DHT22;14472;56.880;16.658;2023-07-31T05:41:45;18.10;1.00
26907;DHT22;14472;56.880;16.658;2023-07-31T05:44:11;18.10;1.00
26907;DHT22;14472;56.880;16.658;2023-07-31T05:46:37;18.10;1.00
26907;DHT22;14472;56.880;16.658;2023-07-31T05:49:02;18.10;1.00
26907;DHT22;14472;56.880;16.658;2023-07-31T05:51:28;18.20;1.00
26907;DHT22;14472;56.880;16.658;2023-07-31T05:53:54;18.10;1.00
26907;DHT22;14472;56.880;16.658;2023-07-31T05:56:19;18.10;1.00
26907;DHT22;14472;56.880;16.658;2023-07-31T05:58:45;18.20;1.00
26907;DHT22;14472;56.880;16.658;2023-07-31T06:01:11;18.20;1.00
26907;DHT22;14472;56.880;16.658;2023-07-31T06:03:37;18.20;1.00
26907;DHT22;14472;56.880;16.658;2023-07-31T06:06:02;18.20;1.00
26907;DHT22;14472;56.880;16.658;2023-07-31T06:08:28;18.20;1.00
26907;DHT22;14472;56.880;16.658;2023-07-31T06:10:54;18.30;1.00
26907;DHT22;14472;56.880;16.658;2023-07-31T06:13:20;18.30;1.00
26907;DHT22;14472;56.880;16.658;2023-07-31T06:15:45;18.30;1.00
26907;DHT22;14472;56.880;16.658;2023-07-31T06:18:11;18.30;1.00
26907;DHT22;14472;56.880;16.658;2023-07-31T06:20:37;18.30;1.00
26907;DHT22;14472;56.880;16.658;2023-07-31T06:23:06;18.30;1.00
26907;DHT22;14472;56.880;16.658;2023-07-31T06:25:31;18.30;1.00
26907;DHT22;14472;56.880;16.658;2023-07-31T06:27:57;18.40;1.00
26907;DHT22;14472;56.880;16.658;2023-07-31T06:30:22;18.50;1.00
26907;DHT22;14472;56.880;16.658;2023-07-31T06:32:48;18.50;1.00
26907;DHT22;14472;56.880;16.658;2023-07-31T06:35:14;18.50;1.00
26907;DHT22;14472;56.880;16.658;2023-07-31T06:37:39;18.50;1.00
26907;DHT22;14472;56.880;16.658;2023-07-31T06:40:06;18.50;1.00
26907;DHT22;14472;56.880;16.658;2023-07-31T06:42:34;18.50;1.00
26907;DHT22;14472;56.880;16.658;2023-07-31T06:45:01;18.50;1.00
26907;DHT22;14472;56.880;16.658;2023-07-31T06:47:27;18.50;1.00
26907;DHT22;14472;56.880;16.658;2023-07-31T06:49:52;18.60;1.00
26907;DHT22;14472;56.880;16.658;2023-07-31T06:52:18;18.60;1.00
26907;DHT22;14472;56.880;16.658;2023-07-31T06:54:56;18.60;1.00
26907;DHT22;14472;56.880;16.658;2023-07-31T06:57:25;18.70;1.00
26907;DHT22;14472;56.880;16.658;2023-07-31T06:59:51;18.70;1.00
26907;DHT22;14472;56.880;16.658;2023-07-31T07:02:16;18.80;1.00
26907;DHT22;14472;56.880;16.658;2023-07-31T07:04:42;18.80;1.00
26907;DHT22;14472;56.880;16.658;2023-07-31T07:07:08;18.80;1.00
26907;DHT22;14472;56.880;16.658;2023-07-31T07:09:33;18.80;1.00
26907;DHT22;14472;56.880;16.658;2023-07-31T07:11:59;18.90;1.00
26907;DHT22;14472;56.880;16.658;2023-07-31T07:14:25;19.00;1.00
26907;DHT22;14472;56.880;16.658;2023-07-31T07:16:51;19.00;1.00
26907;DHT22;14472;56.880;16.658;2023-07-31T07:19:17;19.00;1.00
26907;DHT22;14472;56.880;16.658;2023-07-31T07:21:43;19.10;1.00
26907;DHT22;14472;56.880;16.658;2023-07-31T07:24:08;19.00;1.00
26907;DHT22;14472;56.880;16.658;2023-07-31T07:26:34;19.10;1.00
26907;DHT22;14472;56.880;16.658;2023-07-31T07:29:00;19.10;1.00
26907;DHT22;14472;56.880;16.658;2023-07-31T07:31:28;19.20;1.00
26907;DHT22;14472;56.880;16.658;2023-07-31T07:33:54;19.20;1.00
26907;DHT22;14472;56.880;16.658;2023-07-31T07:36:22;19.30;1.00
26907;DHT22;14472;56.880;16.658;2023-07-31T07:38:47;19.30;1.00
26907;DHT22;14472;56.880;16.658;2023-07-31T07:41:13;19.30;1.00
26907;DHT22;14472;56.880;16.658;2023-07-31T07:43:39;19.40;1.00
26907;DHT22;14472;56.880;16.658;2023-07-31T07:46:04;19.50;1.00
26907;DHT22;14472;56.880;16.658;2023-07-31T07:48:30;19.50;1.00
26907;DHT22;14472;56.880;16.658;2023-07-31T07:50:56;19.50;1.00
26907;DHT22;14472;56.880;16.658;2023-07-31T07:53:22;19.60;1.00
26907;DHT22;14472;56.880;16.658;2023-07-31T07:55:47;19.70;1.00
26907;DHT22;14472;56.880;16.658;2023-07-31T07:58:13;19.70;1.00
26907;DHT22;14472;56.880;16.658;2023-07-31T08:00:39;19.80;1.00
26907;DHT22;14472;56.880;16.658;2023-07-31T08:03:05;19.80;1.00
26907;DHT22;14472;56.880;16.658;2023-07-31T08:05:30;19.90;1.00
26907;DHT22;14472;56.880;16.658;2023-07-31T08:07:59;19.90;1.00
26907;DHT22;14472;56.880;16.658;2023-07-31T08:10:25;19.90;1.00
26907;DHT22;14472;56.880;16.658;2023-07-31T08:12:51;20.00;1.00
26907;DHT22;14472;56.880;16.658;2023-07-31T08:15:16;20.10;1.00
26907;DHT22;14472;56.880;16.658;2023-07-31T08:17:42;20.10;1.00
26907;DHT22;14472;56.880;16.658;2023-07-31T08:20:08;20.10;1.00
26907;DHT22;14472;56.880;16.658;2023-07-31T08:22:34;20.20;1.00
26907;DHT22;14472;56.880;16.658;2023-07-31T08:25:00;20.30;1.00
26907;DHT22;14472;56.880;16.658;2023-07-31T08:27:26;20.30;1.00
26907;DHT22;14472;56.880;16.658;2023-07-31T08:29:52;20.30;1.00
26907;DHT22;14472;56.880;16.658;2023-07-31T08:32:18;20.40;1.00
26907;DHT22;14472;56.880;16.658;2023-07-31T08:34:43;20.50;1.00
26907;DHT22;14472;56.880;16.658;2023-07-31T08:37:09;20.50;1.00
26907;DHT22;14472;56.880;16.658;2023-07-31T08:39:36;20.60;1.00
26907;DHT22;14472;56.880;16.658;2023-07-31T08:42:08;20.60;1.00
26907;DHT22;14472;56.880;16.658;2023-07-31T08:44:34;20.60;1.00
26907;DHT22;14472;56.880;16.658;2023-07-31T08:47:01;20.70;1.00
26907;DHT22;14472;56.880;16.658;2023-07-31T08:49:27;20.80;1.00
26907;DHT22;14472;56.880;16.658;2023-07-31T08:51:57;20.80;1.00
26907;DHT22;14472;56.880;16.658;2023-07-31T08:54:23;20.80;1.00
26907;DHT22;14472;56.880;16.658;2023-07-31T08:56:50;20.80;1.00
26907;DHT22;14472;56.880;16.658;2023-07-31T08:59:17;20.80;1.00
26907;DHT22;14472;56.880;16.658;2023-07-31T09:01:47;20.70;1.00
26907;DHT22;14472;56.880;16.658;2023-07-31T09:04:16;20.80;1.00
26907;DHT22;14472;56.880;16.658;2023-07-31T09:06:44;20.90;1.00
26907;DHT22;14472;56.880;16.658;2023-07-31T09:09:10;21.00;1.00
26907;DHT22;14472;56.880;16.658;2023-07-31T09:11:37;21.00;1.00
26907;DHT22;14472;56.880;16.658;2023-07-31T09:14:03;21.00;1.00
26907;DHT22;14472;56.880;16.658;2023-07-31T09:16:34;21.10;1.00
26907;DHT22;14472;56.880;16.658;2023-07-31T09:19:00;21.10;1.00
26907;DHT22;14472;56.880;16.658;2023-07-31T09:21:28;21.20;1.00
26907;DHT22;14472;56.880;16.658;2023-07-31T09:23:54;21.20;1.00
26907;DHT22;14472;56.880;16.658;2023-07-31T09:26:31;21.30;1.00
26907;DHT22;14472;56.880;16.658;2023-07-31T09:28:58;21.30;1.00
26907;DHT22;14472;56.880;16.658;2023-07-31T09:31:40;21.30;1.00
26907;DHT22;14472;56.880;16.658;2023-07-31T09:34:07;21.40;1.00
26907;DHT22;14472;56.880;16.658;2023-07-31T09:36:40;21.30;1.00
26907;DHT22;14472;56.880;16.658;2023-07-31T09:39:09;21.40;1.00
26907;DHT22;14472;56.880;16.658;2023-07-31T09:41:39;21.40;1.00
26907;DHT22;14472;56.880;16.658;2023-07-31T09:44:06;21.50;1.00
26907;DHT22;14472;56.880;16.658;2023-07-31T09:46:35;21.50;1.00
26907;DHT22;14472;56.880;16.658;2023-07-31T09:49:11;21.60;1.00
26907;DHT22;14472;56.880;16.658;2023-07-31T09:51:38;21.60;1.00
26907;DHT22;14472;56.880;16.658;2023-07-31T09:54:14;21.60;1.00
26907;DHT22;14472;56.880;16.658;2023-07-31T09:56:47;21.70;1.00
26907;DHT22;14472;56.880;16.658;2023-07-31T09:59:18;21.80;1.00
26907;DHT22;14472;56.880;16.658;2023-07-31T10:01:45;21.80;1.00
26907;DHT22;14472;56.880;16.658;2023-07-31T10:04:12;21.90;1.00
26907;DHT22;14472;56.880;16.658;2023-07-31T10:06:40;22.00;1.00
26907;DHT22;14472;56.880;16.658;2023-07-31T10:09:09;22.00;1.00
26907;DHT22;14472;56.880;16.658;2023-07-31T10:11:47;22.10;1.00
26907;DHT22;14472;56.880;16.658;2023-07-31T10:14:19;22.20;1.00
26907;DHT22;14472;56.880;16.658;2023-07-31T10:16:45;22.30;1.00
26907;DHT22;14472;56.880;16.658;2023-07-31T10:19:12;22.30;1.00
26907;DHT22;14472;56.880;16.658;2023-07-31T10:21:37;22.40;1.00
26907;DHT22;14472;56.880;16.658;2023-07-31T10:24:04;22.40;1.00
26907;DHT22;14472;56.880;16.658;2023-07-31T10:26:32;22.40;1.00
26907;DHT22;14472;56.880;16.658;2023-07-31T10:29:00;22.40;1.00
26907;DHT22;14472;56.880;16.658;2023-07-31T10:31:28;22.50;1.00
26907;DHT22;14472;56.880;16.658;2023-07-31T10:33:55;22.50;1.00
26907;DHT22;14472;56.880;16.658;2023-07-31T10:36:21;22.50;1.00
26907;DHT22;14472;56.880;16.658;2023-07-31T10:38:50;22.50;1.00
26907;DHT22;14472;56.880;16.658;2023-07-31T10:41:19;22.60;1.00
26907;DHT22;14472;56.880;16.658;2023-07-31T10:43:47;22.70;1.00
26907;DHT22;14472;56.880;16.658;2023-07-31T10:46:14;22.70;1.00
26907;DHT22;14472;56.880;16.658;2023-07-31T10:48:41;22.80;1.00
26907;DHT22;14472;56.880;16.658;2023-07-31T10:51:08;22.80;1.00
26907;DHT22;14472;56.880;16.658;2023-07-31T10:53:38;22.90;1.00
26907;DHT22;14472;56.880;16.658;2023-07-31T10:56:09;22.90;1.00
26907;DHT22;14472;56.880;16.658;2023-07-31T10:58:37;22.80;1.00
26907;DHT22;14472;56.880;16.658;2023-07-31T11:01:04;22.80;1.00
26907;DHT22;14472;56.880;16.658;2023-07-31T11:03:47;22.70;1.00
26907;DHT22;14472;56.880;16.658;2023-07-31T11:06:14;22.70;1.00
26907;DHT22;14472;56.880;16.658;2023-07-31T11:08:47;22.70;1.00
26907;DHT22;14472;56.880;16.658;2023-07-31T11:11:16;22.60;1.00
26907;DHT22;14472;56.880;16.658;2023-07-31T11:13:47;22.60;1.00
26907;DHT22;14472;56.880;16.658;2023-07-31T11:16:18;22.60;1.00
26907;DHT22;14472;56.880;16.658;2023-07-31T11:18:46;22.60;1.00
26907;DHT22;14472;56.880;16.658;2023-07-31T11:21:17;22.70;1.00
26907;DHT22;14472;56.880;16.658;2023-07-31T11:23:48;22.70;1.00
26907;DHT22;14472;56.880;16.658;2023-07-31T11:26:14;22.70;1.00
26907;DHT22;14472;56.880;16.658;2023-07-31T11:28:40;22.80;1.00
26907;DHT22;14472;56.880;16.658;2023-07-31T11:31:10;22.80;1.00
26907;DHT22;14472;56.880;16.658;2023-07-31T11:33:36;22.70;1.00
26907;DHT22;14472;56.880;16.658;2023-07-31T11:36:02;22.70;1.00
26907;DHT22;14472;56.880;16.658;2023-07-31T11:38:30;22.80;1.00
26907;DHT22;14472;56.880;16.658;2023-07-31T11:41:02;22.80;1.00
26907;DHT22;14472;56.880;16.658;2023-07-31T11:43:28;22.70;1.00
26907;DHT22;14472;56.880;16.658;2023-07-31T11:45:56;22.70;1.00
26907;DHT22;14472;56.880;16.658;2023-07-31T11:48:24;22.80;1.00
26907;DHT22;14472;56.880;16.658;2023-07-31T11:50:51;22.70;1.00
26907;DHT22;14472;56.880;16.658;2023-07-31T11:53:43;22.70;1.00
26907;DHT22;14472;56.880;16.658;2023-07-31T11:56:08;22.80;1.00
26907;DHT22;14472;56.880;16.658;2023-07-31T11:58:36;22.80;1.00
26907;DHT22;14472;56.880;16.658;2023-07-31T12:01:02;22.80;1.00
26907;DHT22;14472;56.880;16.658;2023-07-31T12:03:28;22.80;1.00
26907;DHT22;14472;56.880;16.658;2023-07-31T12:05:54;22.90;1.00
26907;DHT22;14472;56.880;16.658;2023-07-31T12:08:23;22.90;1.00
26907;DHT22;14472;56.880;16.658;2023-07-31T12:10:53;23.00;1.00
26907;DHT22;14472;56.880;16.658;2023-07-31T12:13:26;23.00;1.00
26907;DHT22;14472;56.880;16.658;2023-07-31T12:15:57;22.90;1.00
26907;DHT22;14472;56.880;16.658;2023-07-31T12:18:25;22.80;1.00
26907;DHT22;14472;56.880;16.658;2023-07-31T12:20:56;22.80;1.00
26907;DHT22;14472;56.880;16.658;2023-07-31T12:23:27;22.70;1.00
26907;DHT22;14472;56.880;16.658;2023-07-31T12:28:46;22.50;1.00
26907;DHT22;14472;56.880;16.658;2023-07-31T12:31:15;22.50;1.00
26907;DHT22;14472;56.880;16.658;2023-07-31T12:33:43;22.40;1.00
26907;DHT22;14472;56.880;16.658;2023-07-31T12:36:14;22.30;1.00
26907;DHT22;14472;56.880;16.658;2023-07-31T12:38:41;22.20;1.00
26907;DHT22;14472;56.880;16.658;2023-07-31T12:41:07;22.30;1.00
26907;DHT22;14472;56.880;16.658;2023-07-31T12:43:37;22.20;1.00
26907;DHT22;14472;56.880;16.658;2023-07-31T12:46:03;22.20;1.00
26907;DHT22;14472;56.880;16.658;2023-07-31T12:48:29;22.00;1.00
26907;DHT22;14472;56.880;16.658;2023-07-31T12:50:55;21.90;1.00
26907;DHT22;14472;56.880;16.658;2023-07-31T12:53:21;21.80;1.00
26907;DHT22;14472;56.880;16.658;2023-07-31T12:55:47;21.60;1.00
26907;DHT22;14472;56.880;16.658;2023-07-31T12:58:12;21.50;1.00
26907;DHT22;14472;56.880;16.658;2023-07-31T13:00:38;21.40;1.00
26907;DHT22;14472;56.880;16.658;2023-07-31T13:03:04;21.20;1.00
26907;DHT22;14472;56.880;16.658;2023-07-31T13:05:30;21.10;1.00
26907;DHT22;14472;56.880;16.658;2023-07-31T13:07:56;20.90;1.00
26907;DHT22;14472;56.880;16.658;2023-07-31T13:10:24;20.80;1.00
26907;DHT22;14472;56.880;16.658;2023-07-31T13:12:52;20.70;1.00
26907;DHT22;14472;56.880;16.658;2023-07-31T13:15:18;20.70;1.00
26907;DHT22;14472;56.880;16.658;2023-07-31T13:17:44;20.60;1.00
26907;DHT22;14472;56.880;16.658;2023-07-31T13:20:10;20.60;1.00
26907;DHT22;14472;56.880;16.658;2023-07-31T13:22:36;20.60;1.00
26907;DHT22;14472;56.880;16.658;2023-07-31T13:25:02;20.60;1.00
26907;DHT22;14472;56.880;16.658;2023-07-31T13:27:28;20.50;1.00
26907;DHT22;14472;56.880;16.658;2023-07-31T13:29:54;20.50;1.00
26907;DHT22;14472;56.880;16.658;2023-07-31T13:32:20;20.50;1.00
26907;DHT22;14472;56.880;16.658;2023-07-31T13:34:47;20.50;1.00
26907;DHT22;14472;56.880;16.658;2023-07-31T13:37:14;20.50;1.00
26907;DHT22;14472;56.880;16.658;2023-07-31T13:39:40;20.60;1.00
26907;DHT22;14472;56.880;16.658;2023-07-31T13:42:07;20.60;1.00
26907;DHT22;14472;56.880;16.658;2023-07-31T13:44:36;20.50;1.00
26907;DHT22;14472;56.880;16.658;2023-07-31T13:47:02;20.60;1.00
26907;DHT22;14472;56.880;16.658;2023-07-31T13:49:32;20.60;1.00
26907;DHT22;14472;56.880;16.658;2023-07-31T13:51:58;20.60;1.00
26907;DHT22;14472;56.880;16.658;2023-07-31T13:54:23;20.60;1.00
26907;DHT22;14472;56.880;16.658;2023-07-31T13:56:49;20.60;1.00
26907;DHT22;14472;56.880;16.658;2023-07-31T13:59:15;20.60;1.00
26907;DHT22;14472;56.880;16.658;2023-07-31T14:01:42;20.60;1.00
26907;DHT22;14472;56.880;16.658;2023-07-31T14:04:08;20.70;1.00
26907;DHT22;14472;56.880;16.658;2023-07-31T14:06:34;20.70;1.00
26907;DHT22;14472;56.880;16.658;2023-07-31T14:09:00;20.80;1.00
26907;DHT22;14472;56.880;16.658;2023-07-31T14:11:26;20.80;1.00
26907;DHT22;14472;56.880;16.658;2023-07-31T14:13:52;20.70;1.00
26907;DHT22;14472;56.880;16.658;2023-07-31T14:16:18;20.80;1.00
26907;DHT22;14472;56.880;16.658;2023-07-31T14:18:44;20.80;1.00
26907;DHT22;14472;56.880;16.658;2023-07-31T14:21:11;20.70;1.00
26907;DHT22;14472;56.880;16.658;2023-07-31T14:23:37;20.70;1.00
26907;DHT22;14472;56.880;16.658;2023-07-31T14:26:03;20.70;1.00
26907;DHT22;14472;56.880;16.658;2023-07-31T14:28:28;20.70;1.00
26907;DHT22;14472;56.880;16.658;2023-07-31T14:30:54;20.60;1.00
26907;DHT22;14472;56.880;16.658;2023-07-31T14:33:20;20.60;1.00
26907;DHT22;14472;56.880;16.658;2023-07-31T14:35:46;20.60;1.00
26907;DHT22;14472;56.880;16.658;2023-07-31T14:38:11;20.50;1.00
26907;DHT22;14472;56.880;16.658;2023-07-31T14:40:37;20.50;1.00
26907;DHT22;14472;56.880;16.658;2023-07-31T14:43:04;20.50;1.00
26907;DHT22;14472;56.880;16.658;2023-07-31T14:45:30;20.50;1.00
26907;DHT22;14472;56.880;16.658;2023-07-31T14:47:55;20.50;1.00
26907;DHT22;14472;56.880;16.658;2023-07-31T14:50:21;20.50;1.00
26907;DHT22;14472;56.880;16.658;2023-07-31T14:52:49;20.50;1.00
26907;DHT22;14472;56.880;16.658;2023-07-31T14:55:14;20.60;1.00
26907;DHT22;14472;56.880;16.658;2023-07-31T14:57:40;20.60;10.10
26907;DHT22;14472;56.880;16.658;2023-07-31T15:00:06;20.60;5.00
26907;DHT22;14472;56.880;16.658;2023-07-31T15:02:37;20.60;1.00
26907;DHT22;14472;56.880;16.658;2023-07-31T15:05:03;20.60;1.00
26907;DHT22;14472;56.880;16.658;2023-07-31T15:07:29;20.60;1.00
26907;DHT22;14472;56.880;16.658;2023-07-31T15:09:55;20.60;1.00
26907;DHT22;14472;56.880;16.658;2023-07-31T15:12:21;20.60;1.00
26907;DHT22;14472;56.880;16.658;2023-07-31T15:14:48;20.70;1.00
26907;DHT22;14472;56.880;16.658;2023-07-31T15:17:14;20.70;1.00
26907;DHT22;14472;56.880;16.658;2023-07-31T15:19:40;20.80;1.00
26907;DHT22;14472;56.880;16.658;2023-07-31T15:22:06;20.80;1.00
26907;DHT22;14472;56.880;16.658;2023-07-31T15:24:32;20.80;1.00
26907;DHT22;14472;56.880;16.658;2023-07-31T15:26:58;20.80;1.00
26907;DHT22;14472;56.880;16.658;2023-07-31T15:29:24;20.80;1.00
26907;DHT22;14472;56.880;16.658;2023-07-31T15:31:50;20.80;1.00
26907;DHT22;14472;56.880;16.658;2023-07-31T15:34:16;20.80;1.00
26907;DHT22;14472;56.880;16.658;2023-07-31T15:36:42;20.80;1.00
26907;DHT22;14472;56.880;16.658;2023-07-31T15:39:08;20.80;1.00